Time;durP1;ratioP1;P1;durP2;ratioP2;P2;SDS_P1;SDS_P2;PMS_P1;PMS_P2;Temp;Humidity;BMP_temperature;BMP_pressure;BME280_temperature;BME280_humidity;BME280_pressure;Samples;Min_cycle;Max_cycle;Signal;HPM_P1;HPM_P2
2023/01/03 00:00:15;;;;;;;0.52;0.17;;;;;;;8.04;100.00;96823.19;1035013;28;20348;-71
2023/01/03 00:00:46;;;;;;;2.05;0.30;;;;;;;8.03;100.00;96818.97;1033433;28;20034;-68
2023/01/03 00:01:16;;;;;;;1.08;0.30;;;;;;;8.00;100.00;96820.22;1034102;28;20022;-65
2023/01/03 00:01:47;;;;;;;1.65;0.22;;;;;;;7.98;100.00;96818.81;1041688;28;20029;-69
2023/01/03 00:02:17;;;;;;;0.20;0.20;;;;;;;7.97;100.00;96823.25;1029976;28;20646;-70
2023/01/03 00:02:48;;;;;;;0.25;0.25;;;;;;;7.94;100.00;96826.31;1034265;28;20026;-69
2023/01/03 00:03:18;;;;;;;0.28;0.15;;;;;;;7.94;100.00;96815.06;1034066;28;20401;-69
2023/01/03 00:03:49;;;;;;;1.85;0.10;;;;;;;7.93;100.00;96816.09;1025568;28;20110;-70
2023/01/03 00:04:20;;;;;;;0.28;0.20;;;;;;;7.91;100.00;96807.66;1028769;28;20792;-72
2023/01/03 00:04:50;;;;;;;0.20;0.20;;;;;;;7.91;100.00;96821.50;1025756;28;20101;-69
2023/01/03 00:05:21;;;;;;;0.20;0.20;;;;;;;7.86;100.00;96810.13;1025940;28;20027;-67
2023/01/03 00:05:51;;;;;;;1.15;0.30;;;;;;;7.90;100.00;96824.34;1027265;28;20015;-68
2023/01/03 00:06:23;;;;;;;0.50;0.10;;;;;;;7.88;100.00;96824.59;1026044;28;20077;-72
2023/01/03 00:06:54;;;;;;;0.20;0.20;;;;;;;7.88;100.00;96819.38;1022540;28;20015;-68
2023/01/03 00:07:33;;;;;;;0.80;0.13;;;;;;;7.84;100.00;96822.63;1024571;28;20795;-68
2023/01/03 00:08:04;;;;;;;0.20;0.20;;;;;;;7.82;100.00;96830.69;1035603;28;20109;-69
2023/01/03 00:08:34;;;;;;;0.35;0.20;;;;;;;7.82;100.00;96824.66;1039892;28;20676;-71
2023/01/03 00:09:08;;;;;;;0.77;0.20;;;;;;;7.78;100.00;96821.69;1036377;28;20029;-69
2023/01/03 00:09:38;;;;;;;0.80;0.20;;;;;;;7.83;100.00;96821.03;1033639;28;20106;-69
2023/01/03 00:10:09;;;;;;;0.22;0.20;;;;;;;7.80;100.00;96817.81;1034343;28;20272;-66
2023/01/03 00:10:40;;;;;;;0.43;0.32;;;;;;;7.82;100.00;96824.66;1029779;28;20018;-65
2023/01/03 00:11:14;;;;;;;3.80;0.63;;;;;;;7.75;100.00;96814.28;1034693;28;20049;-68
2023/01/03 00:12:35;;;;;;;0.15;0.15;;;;;;;7.78;100.00;96830.31;1033445;28;20264;-71
2023/01/03 00:13:06;;;;;;;0.55;0.32;;;;;;;7.79;100.00;96831.13;1032971;28;20392;-70
2023/01/03 00:13:36;;;;;;;1.15;0.25;;;;;;;7.79;100.00;96831.13;1033573;28;20312;-71
2023/01/03 00:14:07;;;;;;;0.40;0.20;;;;;;;7.77;100.00;96833.94;1033080;28;20018;-69
2023/01/03 00:14:42;;;;;;;0.20;0.20;;;;;;;7.70;100.00;96827.97;1028851;28;20021;-68
2023/01/03 00:15:15;;;;;;;2.25;0.30;;;;;;;7.73;100.00;96835.38;1026327;28;20433;-69
2023/01/03 00:15:46;;;;;;;0.20;0.20;;;;;;;7.72;100.00;96825.97;1024074;28;20274;-70
2023/01/03 00:16:17;;;;;;;0.05;0.05;;;;;;;7.75;100.00;96835.97;1021759;28;20262;-67
2023/01/03 00:16:52;;;;;;;0.10;0.10;;;;;;;7.70;100.00;96827.97;1021377;28;20019;-69
2023/01/03 00:17:22;;;;;;;0.40;0.30;;;;;;;7.74;100.00;96836.19;1022153;28;20263;-69
2023/01/03 00:17:54;;;;;;;0.20;0.20;;;;;;;7.74;100.00;96838.78;1023211;28;20349;-70
2023/01/03 00:18:25;;;;;;;0.20;0.20;;;;;;;7.72;100.00;96838.22;1028184;28;20021;-67
2023/01/03 00:18:55;;;;;;;0.20;0.20;;;;;;;7.72;100.00;96835.63;1026218;28;20273;-68
2023/01/03 00:19:28;;;;;;;1.25;0.20;;;;;;;7.69;100.00;96831.63;1023483;28;20031;-68
2023/01/03 00:19:59;;;;;;;0.88;0.20;;;;;;;7.71;100.00;96834.00;1026733;28;20015;-69
2023/01/03 00:20:29;;;;;;;0.55;0.30;;;;;;;7.73;100.00;96838.00;1026888;28;20262;-72
2023/01/03 00:21:03;;;;;;;0.30;0.20;;;;;;;7.69;100.00;96834.22;1033937;28;20065;-70
2023/01/03 00:21:34;;;;;;;0.47;0.20;;;;;;;7.71;100.00;96834.81;1035734;28;20024;-69
2023/01/03 00:22:04;;;;;;;0.45;0.17;;;;;;;7.70;100.00;96842.84;1030748;28;20300;-71
2023/01/03 00:22:35;;;;;;;0.50;0.30;;;;;;;7.70;100.00;96842.84;1027944;28;20528;-68
2023/01/03 00:23:05;;;;;;;0.45;0.30;;;;;;;7.71;100.00;96834.81;1029639;28;20023;-71
2023/01/03 00:23:36;;;;;;;0.17;0.17;;;;;;;7.70;100.00;96833.19;1030055;28;20022;-68
2023/01/03 00:24:07;;;;;;;0.50;0.10;;;;;;;7.70;100.00;96835.03;1030086;28;20022;-70
2023/01/03 00:24:37;;;;;;;0.50;0.30;;;;;;;7.70;100.00;96837.63;1021583;28;20030;-74
2023/01/03 00:25:08;;;;;;;0.20;0.20;;;;;;;7.69;100.00;96836.03;1022692;28;20144;-68
2023/01/03 00:25:38;;;;;;;0.10;0.10;;;;;;;7.67;100.00;96836.25;1024213;28;20029;-72
2023/01/03 00:26:14;;;;;;;0.55;0.10;;;;;;;7.56;100.00;96821.28;1023048;28;20809;-70
2023/01/03 00:26:44;;;;;;;0.73;0.20;;;;;;;7.67;100.00;96838.06;1026132;28;20037;-73
2023/01/03 00:27:15;;;;;;;0.30;0.30;;;;;;;7.67;100.00;96838.06;1031998;28;20279;-67
2023/01/03 00:27:46;;;;;;;0.22;0.20;;;;;;;7.65;100.00;96832.28;1026948;28;20039;-71
2023/01/03 00:28:16;;;;;;;0.22;0.22;;;;;;;7.66;100.00;96826.81;1030167;28;20026;-69
2023/01/03 00:28:47;;;;;;;2.20;0.40;;;;;;;7.63;100.00;96827.25;1034226;28;20121;-69
2023/01/03 00:29:17;;;;;;;1.48;0.22;;;;;;;7.65;100.00;96829.66;1026016;28;20456;-71
2023/01/03 00:29:48;;;;;;;0.20;0.20;;;;;;;7.63;100.00;96829.84;1026089;28;20035;-69
2023/01/03 00:30:18;;;;;;;0.32;0.10;;;;;;;7.64;100.00;96828.84;1022247;29;20679;-71
2023/01/03 00:30:49;;;;;;;0.20;0.20;;;;;;;7.65;100.00;96829.66;1020833;28;20476;-71
2023/01/03 00:31:19;;;;;;;3.20;0.22;;;;;;;7.61;100.00;96831.09;1029024;28;20022;-71
2023/01/03 00:31:50;;;;;;;0.45;0.28;;;;;;;7.59;100.00;96826.09;1030376;28;20026;-67
2023/01/03 00:32:20;;;;;;;0.40;0.20;;;;;;;7.58;100.00;96824.50;1025923;28;20639;-71
2023/01/03 00:32:51;;;;;;;0.45;0.20;;;;;;;7.58;100.00;96824.50;1030211;28;20630;-68
2023/01/03 00:33:21;;;;;;;0.75;0.20;;;;;;;7.57;100.00;96821.06;1030174;28;20022;-70
2023/01/03 00:33:52;;;;;;;0.65;0.25;;;;;;;7.59;100.00;96825.28;1030207;28;20030;-69
2023/01/03 00:34:22;;;;;;;0.43;0.20;;;;;;;7.59;100.00;96826.09;1034315;28;20036;-68
2023/01/03 00:34:53;;;;;;;0.60;0.30;;;;;;;7.57;100.00;96822.88;1029808;28;20051;-70
2023/01/03 00:35:23;;;;;;;1.23;0.35;;;;;;;7.55;100.00;96824.94;1030304;28;20057;-70
2023/01/03 00:35:54;;;;;;;0.75;0.25;;;;;;;7.56;100.00;96831.75;1025583;28;20034;-70
2023/01/03 00:36:24;;;;;;;0.40;0.15;;;;;;;7.56;100.00;96829.13;1026223;28;20025;-68
2023/01/03 00:36:54;;;;;;;1.45;0.10;;;;;;;7.53;100.00;96821.72;1033503;28;20054;-68
2023/01/03 00:37:25;;;;;;;0.80;0.20;;;;;;;7.53;100.00;96832.19;1030097;28;20503;-73
2023/01/03 00:37:55;;;;;;;0.20;0.20;;;;;;;7.54;100.00;96831.16;1034175;28;20030;-70
2023/01/03 00:38:26;;;;;;;1.95;0.30;;;;;;;7.53;100.00;96832.19;1034140;28;20029;-70
2023/01/03 00:38:57;;;;;;;0.60;0.40;;;;;;;7.52;100.00;96825.38;1034054;28;20018;-70
2023/01/03 00:39:27;;;;;;;0.50;0.40;;;;;;;7.48;100.00;96835.44;1030176;28;20042;-70
2023/01/03 00:39:58;;;;;;;1.02;0.30;;;;;;;7.49;100.00;96836.22;1026217;28;20784;-70
2023/01/03 00:40:28;;;;;;;1.65;0.32;;;;;;;7.51;100.00;96835.00;1026210;28;20022;-69
2023/01/03 00:41:06;;;;;;;0.47;0.22;;;;;;;7.51;100.00;96835.00;1026265;28;20068;-68
2023/01/03 00:41:36;;;;;;;0.20;0.20;;;;;;;7.52;100.00;96835.81;1030077;28;20027;-69
2023/01/03 00:42:07;;;;;;;0.88;0.50;;;;;;;7.50;100.00;96830.00;1030852;28;20269;-70
2023/01/03 00:43:27;;;;;;;0.20;0.20;;;;;;;7.49;100.00;96834.41;1035105;28;20430;-69
2023/01/03 00:43:28;;;;;;;2.05;0.40;;;;;;;7.49;100.00;96823.19;1040963;28;20029;-68
2023/01/03 00:43:58;;;;;;;0.15;0.15;;;;;;;7.48;100.00;96829.44;1035634;28;20026;-71
2023/01/03 00:44:29;;;;;;;0.75;0.20;;;;;;;7.48;100.00;96825.00;1030239;28;20025;-72
2023/01/03 00:44:59;;;;;;;0.38;0.10;;;;;;;7.47;100.00;96826.00;1029964;28;20078;-70
2023/01/03 00:45:30;;;;;;;0.20;0.17;;;;;;;7.46;100.00;96824.41;1029730;28;20958;-68
2023/01/03 00:46:00;;;;;;;0.40;0.30;;;;;;;7.44;100.00;96825.63;1033976;28;20068;-70
2023/01/03 00:46:31;;;;;;;0.17;0.17;;;;;;;7.44;100.00;96829.03;1030217;28;20022;-69
2023/01/03 00:47:01;;;;;;;0.20;0.20;;;;;;;7.46;100.00;96829.63;1025723;28;20018;-70
2023/01/03 00:47:32;;;;;;;0.20;0.20;;;;;;;7.49;100.00;96836.22;1020289;29;20019;-69
2023/01/03 00:48:02;;;;;;;0.38;0.20;;;;;;;7.49;100.00;96838.84;1022200;28;20414;-70
2023/01/03 00:48:33;;;;;;;0.65;0.45;;;;;;;7.49;100.00;96841.47;1026873;28;20145;-70
2023/01/03 00:49:03;;;;;;;0.43;0.10;;;;;;;7.42;100.00;96835.50;1038223;28;20810;-72
2023/01/03 00:49:34;;;;;;;2.38;0.30;;;;;;;7.42;100.00;96833.69;1038502;28;20103;-69
2023/01/03 00:50:05;;;;;;;0.10;0.10;;;;;;;7.47;100.00;96838.25;1034307;28;20022;-69
2023/01/03 00:50:36;;;;;;;0.38;0.30;;;;;;;7.47;100.00;96835.63;1037607;28;20021;-70
2023/01/03 00:51:08;;;;;;;0.30;0.30;;;;;;;7.38;100.00;96829.91;1038060;28;20082;-70
2023/01/03 00:51:39;;;;;;;0.10;0.10;;;;;;;7.43;100.00;96837.09;1033941;28;20262;-71
2023/01/03 00:52:09;;;;;;;0.15;0.15;;;;;;;7.45;100.00;96832.47;1030095;28;20273;-71
2023/01/03 00:52:40;;;;;;;1.63;0.20;;;;;;;7.44;100.00;96833.47;1029960;28;20304;-70
2023/01/03 00:53:10;;;;;;;1.00;0.30;;;;;;;7.43;100.00;96827.44;1026185;28;20026;-72
2023/01/03 00:53:44;;;;;;;0.57;0.20;;;;;;;7.39;100.00;96826.28;1026105;28;20669;-68
2023/01/03 00:54:14;;;;;;;0.43;0.40;;;;;;;7.42;100.00;96825.06;1022099;29;20054;-69
2023/01/03 00:54:45;;;;;;;0.40;0.30;;;;;;;7.40;100.00;96822.66;1022058;28;20652;-69
2023/01/03 00:55:15;;;;;;;0.43;0.30;;;;;;;7.43;100.00;96826.66;1025941;28;20023;-69
2023/01/03 00:55:46;;;;;;;0.73;0.40;;;;;;;7.40;100.00;96821.84;1021469;29;20820;-68
2023/01/03 00:56:18;;;;;;;0.30;0.20;;;;;;;7.44;100.00;96825.63;1018493;28;20877;-70
2023/01/03 00:56:49;;;;;;;0.20;0.20;;;;;;;7.42;100.00;96819.84;1022839;28;20110;-69
2023/01/03 00:57:19;;;;;;;1.98;0.38;;;;;;;7.41;100.00;96823.44;1024684;28;20270;-72
2023/01/03 00:57:50;;;;;;;0.10;0.10;;;;;;;7.38;100.00;96826.47;1026384;28;20023;-69
2023/01/03 00:58:20;;;;;;;0.15;0.10;;;;;;;7.42;100.00;96830.28;1026251;28;20471;-72
2023/01/03 00:58:51;;;;;;;0.65;0.40;;;;;;;7.39;100.00;96831.50;1027794;28;20058;-71
2023/01/03 00:59:21;;;;;;;0.13;0.13;;;;;;;7.42;100.00;96835.50;1029988;28;20546;-69
2023/01/03 00:59:52;;;;;;;1.23;0.30;;;;;;;7.43;100.00;96831.88;1030045;28;20046;-69
2023/01/03 01:00:22;;;;;;;0.38;0.30;;;;;;;7.29;100.00;96818.94;1034394;28;20018;-71
2023/01/03 01:00:53;;;;;;;0.40;0.35;;;;;;;7.42;100.00;96835.50;1034167;28;20041;-70
2023/01/03 01:01:25;;;;;;;0.20;0.20;;;;;;;7.42;100.00;96843.34;1038040;28;20025;-71
2023/01/03 01:01:55;;;;;;;1.77;0.20;;;;;;;7.38;100.00;96839.53;1030042;28;20022;-70
2023/01/03 01:02:26;;;;;;;0.20;0.20;;;;;;;7.40;100.00;96847.97;1029844;28;20340;-69
2023/01/03 01:02:56;;;;;;;0.20;0.20;;;;;;;7.38;100.00;96842.16;1030141;28;20026;-70
2023/01/03 01:03:27;;;;;;;1.95;0.40;;;;;;;7.39;100.00;96841.16;1026421;28;20037;-70
2023/01/03 01:04:01;;;;;;;0.40;0.30;;;;;;;7.40;100.00;96847.97;1032437;28;20014;-69
2023/01/03 01:04:32;;;;;;;3.20;0.45;;;;;;;7.40;100.00;96842.75;1034248;28;20045;-72
2023/01/03 01:05:02;;;;;;;1.83;0.38;;;;;;;7.38;100.00;96842.97;1034065;28;20268;-71
2023/01/03 01:05:33;;;;;;;0.28;0.28;;;;;;;7.39;100.00;96848.97;1033489;28;20076;-70
2023/01/03 01:06:33;;;;;;;0.30;0.30;;;;;;;7.36;100.00;96852.03;1034459;28;20028;-70
2023/01/03 01:07:04;;;;;;;0.38;0.30;;;;;;;7.37;100.00;96848.38;1038000;28;20037;-70
2023/01/03 01:07:34;;;;;;;0.20;0.20;;;;;;;7.31;100.00;96850.84;1037867;28;20021;-69
2023/01/03 01:08:05;;;;;;;0.50;0.50;;;;;;;7.29;100.00;96852.88;1034033;28;20673;-69
2023/01/03 01:08:35;;;;;;;0.47;0.30;;;;;;;7.24;100.00;96852.72;1034303;28;20026;-73
2023/01/03 01:09:07;;;;;;;0.70;0.25;;;;;;;7.19;100.00;96842.13;1036114;28;20024;-74
2023/01/03 01:09:37;;;;;;;1.35;0.32;;;;;;;7.21;100.00;96855.75;1026040;28;20102;-71
2023/01/03 01:10:08;;;;;;;0.40;0.30;;;;;;;7.22;100.00;96854.75;1026081;28;20296;-69
2023/01/03 01:11:00;;;;;;;0.32;0.32;;;;;;;7.13;100.00;96848.19;1026335;28;20026;-70
2023/01/03 01:11:31;;;;;;;0.45;0.40;;;;;;;7.19;100.00;96854.38;1032988;28;20022;-70
2023/01/03 01:12:02;;;;;;;0.10;0.10;;;;;;;7.08;100.00;96835.78;1033919;28;20864;-68
2023/01/03 01:12:32;;;;;;;0.43;0.30;;;;;;;7.13;100.00;96848.19;1032141;28;20507;-71
2023/01/03 01:13:03;;;;;;;0.40;0.30;;;;;;;7.12;100.00;96843.97;1031359;28;20289;-71
2023/01/03 01:13:34;;;;;;;0.60;0.40;;;;;;;7.13;100.00;96847.38;1030225;28;20022;-68
2023/01/03 01:14:18;;;;;;;0.30;0.30;;;;;;;7.10;100.00;96843.38;1027122;28;20258;-70
2023/01/03 01:14:49;;;;;;;0.25;0.25;;;;;;;7.10;100.00;96846.00;1029994;28;20522;-70
2023/01/03 01:15:19;;;;;;;0.57;0.35;;;;;;;7.07;100.00;96838.59;1030060;28;20324;-69
2023/01/03 01:15:50;;;;;;;0.40;0.32;;;;;;;7.12;100.00;96845.78;1029141;28;20249;-72
2023/01/03 01:16:25;;;;;;;0.80;0.22;;;;;;;7.12;100.00;96851.81;1035888;28;20022;-71
2023/01/03 01:17:06;;;;;;;0.52;0.30;;;;;;;7.12;100.00;96849.19;1038185;28;20076;-69
2023/01/03 01:17:37;;;;;;;0.40;0.22;;;;;;;7.14;100.00;96859.41;1036183;28;20272;-71
2023/01/03 01:18:08;;;;;;;0.22;0.22;;;;;;;7.10;100.00;96856.44;1034033;28;20265;-68
2023/01/03 01:18:39;;;;;;;0.28;0.22;;;;;;;7.08;100.00;96858.47;1033978;28;20017;-70
2023/01/03 01:19:09;;;;;;;1.67;0.40;;;;;;;7.12;100.00;96857.03;1034045;28;20056;-69
2023/01/03 01:19:41;;;;;;;0.57;0.20;;;;;;;7.05;100.00;96843.25;1038402;28;20053;-68
2023/01/03 01:20:12;;;;;;;0.63;0.38;;;;;;;7.07;100.00;96849.81;1032814;28;20021;-69
2023/01/03 01:20:43;;;;;;;1.25;0.40;;;;;;;7.08;100.00;96856.66;1026062;28;20270;-70
2023/01/03 01:21:18;;;;;;;1.73;0.35;;;;;;;7.05;100.00;96851.06;1029801;28;20269;-70
2023/01/03 01:21:48;;;;;;;0.30;0.25;;;;;;;7.10;100.00;96856.44;1030949;28;20026;-72
2023/01/03 01:22:19;;;;;;;0.85;0.65;;;;;;;7.04;100.00;96850.28;1030787;28;20266;-70
2023/01/03 01:22:49;;;;;;;0.28;0.20;;;;;;;7.10;100.00;96853.81;1029036;28;20022;-69
2023/01/03 01:23:20;;;;;;;0.20;0.20;;;;;;;7.11;100.00;96860.66;1026235;28;20011;-68
2023/01/03 01:23:51;;;;;;;3.00;0.20;;;;;;;7.13;100.00;96858.63;1029944;28;20026;-75
2023/01/03 01:24:21;;;;;;;0.35;0.30;;;;;;;7.14;100.00;96872.47;1031258;28;20094;-71
2023/01/03 01:24:51;;;;;;;0.70;0.40;;;;;;;7.10;100.00;96866.88;1034006;28;20053;-69
2023/01/03 01:25:22;;;;;;;0.70;0.22;;;;;;;7.14;100.00;96864.63;1030119;28;20065;-71
2023/01/03 01:25:52;;;;;;;0.65;0.35;;;;;;;7.14;100.00;96870.66;1029262;28;20531;-72
2023/01/03 01:26:23;;;;;;;1.05;0.30;;;;;;;7.17;100.00;96869.44;1037210;28;20026;-70
2023/01/03 01:26:54;;;;;;;0.57;0.43;;;;;;;7.15;100.00;96871.47;1034061;28;20050;-71
2023/01/03 01:27:24;;;;;;;0.52;0.40;;;;;;;7.14;100.00;96881.09;1034264;28;20534;-71
2023/01/03 01:27:54;;;;;;;0.73;0.60;;;;;;;7.13;100.00;96871.66;1033913;28;20018;-69
2023/01/03 01:28:25;;;;;;;0.52;0.32;;;;;;;7.15;100.00;96877.50;1029896;28;20014;-71
2023/01/03 01:28:55;;;;;;;0.38;0.30;;;;;;;7.17;100.00;96875.44;1022163;28;20389;-68
2023/01/03 01:29:26;;;;;;;0.77;0.50;;;;;;;7.18;100.00;96874.47;1026077;28;20038;-68
2023/01/03 01:29:56;;;;;;;0.50;0.40;;;;;;;7.17;100.00;96878.06;1022158;28;20046;-73
2023/01/03 01:30:27;;;;;;;0.35;0.20;;;;;;;7.20;100.00;96879.44;1022339;28;20026;-73
2023/01/03 01:30:58;;;;;;;0.25;0.25;;;;;;;7.15;100.00;96863.66;1025798;28;20556;-70
2023/01/03 01:31:29;;;;;;;0.30;0.30;;;;;;;7.20;100.00;96879.44;1022575;28;20019;-70
2023/01/03 01:32:00;;;;;;;0.40;0.35;;;;;;;7.20;100.00;96876.84;1025913;28;20624;-70
2023/01/03 01:32:31;;;;;;;0.70;0.40;;;;;;;7.17;100.00;96875.44;1026068;28;20484;-71
2023/01/03 01:33:01;;;;;;;0.57;0.30;;;;;;;7.23;100.00;96879.03;1025484;28;20273;-72
2023/01/03 01:33:32;;;;;;;0.22;0.22;;;;;;;7.16;100.00;96868.63;1029740;28;20022;-67
2023/01/03 01:34:03;;;;;;;0.80;0.43;;;;;;;7.19;100.00;96873.44;1030032;28;20026;-71
2023/01/03 01:34:34;;;;;;;0.35;0.30;;;;;;;7.21;100.00;96871.41;1026114;28;20270;-70
2023/01/03 01:35:05;;;;;;;1.55;0.80;;;;;;;7.21;100.00;96874.03;1031992;28;20264;-73
2023/01/03 01:35:36;;;;;;;0.20;0.20;;;;;;;7.19;100.00;96865.59;1029458;28;20262;-69
2023/01/03 01:36:18;;;;;;;0.63;0.40;;;;;;;7.20;100.00;96869.81;1021983;29;20051;-68
2023/01/03 01:36:48;;;;;;;1.55;0.28;;;;;;;7.20;100.00;96875.03;1023533;28;20019;-68
2023/01/03 01:37:19;;;;;;;0.57;0.30;;;;;;;7.18;100.00;96873.66;1026359;28;20274;-68
2023/01/03 01:37:49;;;;;;;0.30;0.30;;;;;;;7.16;100.00;96868.63;1023757;28;20129;-71
2023/01/03 01:38:19;;;;;;;0.60;0.60;;;;;;;7.14;100.00;96873.25;1030294;28;20023;-71
2023/01/03 01:38:55;;;;;;;0.20;0.20;;;;;;;7.15;100.00;96876.69;1030621;28;20081;-67
2023/01/03 01:39:27;;;;;;;1.67;0.40;;;;;;;7.17;100.00;96874.66;1031044;28;20033;-68
2023/01/03 01:39:57;;;;;;;0.50;0.50;;;;;;;7.15;100.00;96871.47;1026812;28;20810;-71
2023/01/03 01:40:29;;;;;;;1.35;0.45;;;;;;;7.07;100.00;96859.47;1031996;28;20269;-68
2023/01/03 01:41:00;;;;;;;1.13;0.40;;;;;;;7.15;100.00;96871.47;1026960;28;20011;-70
2023/01/03 01:45:00;;;;;;;0.50;0.30;;;;;;;7.06;100.00;96881.34;1030984;28;20977;-73
2023/01/03 01:45:30;;;;;;;0.40;0.40;;;;;;;7.03;100.00;96876.56;1030464;28;20254;-69
2023/01/03 01:46:24;;;;;;;0.47;0.47;;;;;;;7.04;100.00;96878.16;1030737;28;20260;-69
2023/01/03 01:46:54;;;;;;;0.38;0.38;;;;;;;7.04;100.00;96880.75;1022844;28;20474;-69
2023/01/03 01:47:44;;;;;;;1.10;0.40;;;;;;;7.00;100.00;96875.16;1024429;28;20262;-68
2023/01/03 01:48:15;;;;;;;1.45;0.65;;;;;;;6.99;100.00;96875.41;1028287;28;20424;-68
2023/01/03 01:48:46;;;;;;;0.43;0.38;;;;;;;6.99;100.00;96876.19;1032072;28;20299;-70
2023/01/03 01:49:22;;;;;;;0.63;0.50;;;;;;;6.96;100.00;96867.97;1028136;28;20270;-69
2023/01/03 01:50:30;;;;;;;0.55;0.43;;;;;;;6.92;100.00;96875.44;1030891;28;20077;-69
2023/01/03 01:51:01;;;;;;;0.50;0.30;;;;;;;6.89;100.00;96877.66;1026965;28;20262;-68
2023/01/03 01:51:32;;;;;;;1.00;0.52;;;;;;;6.89;100.00;96880.28;1023917;28;20270;-73
2023/01/03 01:52:03;;;;;;;0.40;0.40;;;;;;;6.87;100.00;96885.69;1020488;29;20016;-69
2023/01/03 01:52:35;;;;;;;0.40;0.32;;;;;;;6.80;100.00;96871.88;1022266;28;20867;-72
2023/01/03 01:53:05;;;;;;;1.10;0.50;;;;;;;6.82;100.00;96883.72;1027314;28;20452;-72
2023/01/03 01:53:37;;;;;;;0.40;0.40;;;;;;;6.82;100.00;96882.94;1031322;28;20253;-70
2023/01/03 01:54:07;;;;;;;0.88;0.40;;;;;;;6.80;100.00;96875.28;1030821;28;20018;-69
2023/01/03 01:54:39;;;;;;;1.40;0.50;;;;;;;6.79;100.00;96870.31;1026828;28;20266;-73
2023/01/03 01:55:12;;;;;;;0.85;0.55;;;;;;;6.78;100.00;96869.50;1026996;28;20018;-72
2023/01/03 01:55:45;;;;;;;0.57;0.50;;;;;;;6.78;100.00;96872.13;1029871;28;20315;-69
2023/01/03 01:56:24;;;;;;;0.98;0.60;;;;;;;6.77;100.00;96880.13;1022805;28;20301;-72
2023/01/03 01:56:55;;;;;;;0.45;0.45;;;;;;;6.74;100.00;96880.56;1022718;29;20274;-68
2023/01/03 01:57:25;;;;;;;0.40;0.40;;;;;;;6.70;100.00;96874.94;1022884;29;21046;-70
2023/01/03 01:57:56;;;;;;;0.52;0.50;;;;;;;6.66;100.00;96868.56;1022365;28;20133;-70
2023/01/03 01:58:28;;;;;;;0.47;0.40;;;;;;;6.71;100.00;96884.41;1019073;29;20023;-70
2023/01/03 01:58:58;;;;;;;0.30;0.30;;;;;;;6.66;100.00;96880.81;1022464;29;20019;-71
2023/01/03 01:59:29;;;;;;;1.15;0.60;;;;;;;6.63;100.00;96879.41;1022968;29;20877;-67
2023/01/03 01:59:59;;;;;;;0.90;0.60;;;;;;;6.63;100.00;96887.22;1026719;28;20057;-70
2023/01/03 02:00:30;;;;;;;2.05;0.45;;;;;;;6.66;100.00;96884.22;1022899;28;20031;-70
2023/01/03 02:01:00;;;;;;;0.95;0.40;;;;;;;6.64;100.00;96888.84;1022698;28;20433;-71
2023/01/03 02:01:31;;;;;;;0.70;0.40;;;;;;;6.63;100.00;96883.84;1019182;29;20019;-69
2023/01/03 02:02:01;;;;;;;1.10;0.43;;;;;;;6.62;100.00;96875.22;1018706;29;20032;-69
2023/01/03 02:02:32;;;;;;;0.80;0.50;;;;;;;6.63;100.00;96889.84;1018469;29;20032;-71
2023/01/03 02:03:02;;;;;;;0.73;0.45;;;;;;;6.61;100.00;96884.84;1023175;28;20074;-71
2023/01/03 02:03:33;;;;;;;0.52;0.40;;;;;;;6.61;100.00;96878.84;1022924;28;20018;-70
2023/01/03 02:04:08;;;;;;;1.85;0.60;;;;;;;6.55;100.00;96875.25;1026467;28;20739;-71
2023/01/03 02:04:38;;;;;;;2.42;0.63;;;;;;;6.63;100.00;96876.00;1026933;28;20046;-70
2023/01/03 02:05:09;;;;;;;0.95;0.60;;;;;;;6.59;100.00;96880.84;1023473;28;20263;-71
2023/01/03 02:05:45;;;;;;;1.25;0.50;;;;;;;6.57;100.00;96881.06;1019891;29;20103;-67
2023/01/03 02:06:15;;;;;;;4.28;0.82;;;;;;;6.60;100.00;96885.03;1023301;28;20442;-71
2023/01/03 02:06:46;;;;;;;0.70;0.55;;;;;;;6.58;100.00;96876.66;1027590;28;20386;-69
2023/01/03 02:07:17;;;;;;;5.57;0.70;;;;;;;6.60;100.00;96882.44;1027502;28;20029;-71
2023/01/03 02:07:49;;;;;;;1.35;0.70;;;;;;;6.56;100.00;96869.00;1030870;28;20640;-72
2023/01/03 02:08:19;;;;;;;2.50;0.70;;;;;;;6.57;100.00;96875.84;1030853;28;20795;-70
2023/01/03 02:08:50;;;;;;;0.50;0.50;;;;;;;6.55;100.00;96879.66;1026643;28;20289;-72
2023/01/03 02:09:20;;;;;;;0.70;0.70;;;;;;;6.51;100.00;96881.91;1030332;28;20033;-72
2023/01/03 02:09:54;;;;;;;2.45;0.57;;;;;;;6.52;100.00;96874.88;1031199;28;20504;-71
2023/01/03 02:10:52;;;;;;;0.38;0.38;;;;;;;6.48;100.00;96881.50;1030272;28;20447;-70
2023/01/03 02:11:32;;;;;;;0.70;0.70;;;;;;;6.42;100.00;96882.34;1026888;28;20238;-72
2023/01/03 02:13:28;;;;;;;2.03;0.52;;;;;;;6.42;100.00;96877.13;1024538;28;20608;-72
2023/01/03 02:14:24;;;;;;;0.45;0.45;;;;;;;6.43;100.00;96878.72;1026661;28;20277;-71
2023/01/03 02:15:32;;;;;;;0.68;0.60;;;;;;;6.36;100.00;96884.75;1030632;28;20019;-70
2023/01/03 02:16:18;;;;;;;0.80;0.60;;;;;;;6.33;100.00;96885.16;1038197;28;20279;-71
2023/01/03 02:17:00;;;;;;;0.90;0.50;;;;;;;6.29;100.00;96889.19;1039573;28;20264;-71
2023/01/03 02:17:49;;;;;;;2.65;0.52;;;;;;;6.26;100.00;96884.38;1038924;28;20267;-69
2023/01/03 02:18:45;;;;;;;1.20;0.80;;;;;;;6.24;100.00;96891.63;1039166;28;20276;-70
2023/01/03 02:19:42;;;;;;;1.02;0.65;;;;;;;6.24;100.00;96888.22;1034605;28;20257;-69
2023/01/03 02:20:34;;;;;;;2.70;0.47;;;;;;;6.23;100.00;96887.41;1030544;28;20257;-72
2023/01/03 02:21:35;;;;;;;0.50;0.50;;;;;;;6.19;100.00;96894.03;1035466;28;20335;-71
2023/01/03 02:22:30;;;;;;;1.25;0.70;;;;;;;6.20;100.00;96890.41;1038385;28;20248;-68
2023/01/03 02:23:18;;;;;;;0.77;0.70;;;;;;;6.17;100.00;96890.88;1031303;28;20041;-69
2023/01/03 02:24:07;;;;;;;0.80;0.68;;;;;;;6.16;100.00;96889.25;1033303;28;20250;-71
2023/01/03 02:24:38;;;;;;;1.40;0.95;;;;;;;6.13;100.00;96887.84;1038728;28;20271;-71
2023/01/03 02:25:32;;;;;;;0.75;0.63;;;;;;;6.13;100.00;96890.44;1039443;28;20241;-69
2023/01/03 02:26:21;;;;;;;1.17;0.65;;;;;;;6.12;100.00;96886.25;1039449;28;20021;-69
2023/01/03 02:27:02;;;;;;;1.30;0.85;;;;;;;6.13;100.00;96885.22;1043914;28;20251;-68
2023/01/03 02:27:56;;;;;;;0.60;0.60;;;;;;;6.14;100.00;96884.25;1039805;28;20582;-71
2023/01/03 02:28:42;;;;;;;1.00;0.90;;;;;;;6.16;100.00;96889.25;1031570;28;20250;-72
2023/01/03 02:30:03;;;;;;;2.03;0.85;;;;;;;6.13;100.00;96885.22;1035064;28;20762;-69
2023/01/03 02:30:35;;;;;;;0.65;0.65;;;;;;;6.07;100.00;96882.66;1043667;28;20235;-68
2023/01/03 02:31:11;;;;;;;2.42;0.60;;;;;;;6.12;100.00;96888.84;1039079;28;20021;-68
2023/01/03 02:32:19;;;;;;;0.63;0.55;;;;;;;6.05;100.00;96882.88;1039672;28;20887;-69
2023/01/03 02:33:09;;;;;;;0.55;0.52;;;;;;;6.09;100.00;96888.47;1040472;28;20272;-69
2023/01/03 02:34:00;;;;;;;0.82;0.60;;;;;;;6.12;100.00;96883.66;1031382;28;20270;-69
2023/01/03 02:34:38;;;;;;;1.25;0.70;;;;;;;6.11;100.00;96887.25;1036881;28;20028;-73
2023/01/03 02:35:23;;;;;;;1.52;0.80;;;;;;;6.08;100.00;96887.66;1029034;28;20033;-68
2023/01/03 02:36:08;;;;;;;1.25;0.90;;;;;;;6.10;100.00;96884.84;1018970;29;20294;-69
2023/01/03 02:36:57;;;;;;;0.60;0.60;;;;;;;6.09;100.00;96880.66;1023945;28;20636;-68
2023/01/03 02:37:44;;;;;;;1.13;0.70;;;;;;;6.10;100.00;96880.47;1029347;28;20258;-69
2023/01/03 02:38:17;;;;;;;1.55;0.73;;;;;;;6.10;100.00;96882.25;1033883;28;20261;-68
2023/01/03 02:39:11;;;;;;;1.02;0.90;;;;;;;6.08;100.00;96889.47;1035801;28;20307;-69
2023/01/03 02:39:57;;;;;;;0.95;0.90;;;;;;;6.07;100.00;96885.25;1031370;28;20261;-70
2023/01/03 02:40:33;;;;;;;0.63;0.52;;;;;;;6.06;100.00;96887.06;1035588;28;20311;-69
2023/01/03 02:41:22;;;;;;;0.95;0.82;;;;;;;6.09;100.00;96888.47;1035599;28;20268;-70
2023/01/03 02:43:05;;;;;;;1.15;0.75;;;;;;;6.03;100.00;96871.03;1031544;28;20347;-69
2023/01/03 02:43:40;;;;;;;1.25;0.63;;;;;;;6.07;100.00;96885.25;1029368;28;20257;-69
2023/01/03 02:44:28;;;;;;;1.45;0.77;;;;;;;6.07;100.00;96890.47;1029011;28;20254;-69
2023/01/03 02:45:12;;;;;;;1.08;0.70;;;;;;;6.07;100.00;96893.06;1023617;28;20630;-68
2023/01/03 02:45:54;;;;;;;1.30;0.90;;;;;;;6.06;100.00;96888.88;1019112;29;20267;-68
2023/01/03 02:46:38;;;;;;;1.02;0.80;;;;;;;6.05;100.00;96887.28;1023694;29;20247;-69
2023/01/03 02:47:11;;;;;;;2.92;0.93;;;;;;;6.04;100.00;96881.28;1030952;28;20262;-72
2023/01/03 02:47:57;;;;;;;1.77;0.77;;;;;;;6.08;100.00;96881.66;1029574;28;20313;-73
2023/01/03 02:48:40;;;;;;;1.00;0.68;;;;;;;6.08;100.00;96894.69;1026066;29;20645;-73